sensor_id;sensor_type;location;lat;lon;timestamp;pressure;altitude;pressure_sealevel;temperature;humidity
73551;BME280;61816;53.582;10.096;2023-04-24T00:00:57;54374.84;;;-144.73;100.00
73551;BME280;61816;53.582;10.096;2023-04-24T00:03:24;54333.81;;;-144.73;100.00
73551;BME280;61816;53.582;10.096;2023-04-24T00:05:49;54378.97;;;-144.73;100.00
73551;BME280;61816;53.582;10.096;2023-04-24T00:08:15;54354.34;;;-144.73;100.00
73551;BME280;61816;53.582;10.096;2023-04-24T00:10:41;54362.53;;;-144.73;100.00
73551;BME280;61816;53.582;10.096;2023-04-24T00:13:06;54346.13;;;-144.73;100.00
73551;BME280;61816;53.582;10.096;2023-04-24T00:15:32;54358.44;;;-144.73;100.00
73551;BME280;61816;53.582;10.096;2023-04-24T00:17:58;54364.59;;;-144.73;100.00
73551;BME280;61816;53.582;10.096;2023-04-24T00:20:23;54370.75;;;-144.73;100.00
73551;BME280;61816;53.582;10.096;2023-04-24T00:22:48;54378.97;;;-144.73;100.00
73551;BME280;61816;53.582;10.096;2023-04-24T00:25:14;54319.44;;;-144.73;100.00
73551;BME280;61816;53.582;10.096;2023-04-24T00:27:40;54374.84;;;-144.73;100.00
73551;BME280;61816;53.582;10.096;2023-04-24T00:30:06;54321.50;;;-144.73;100.00
73551;BME280;61816;53.582;10.096;2023-04-24T00:32:31;54366.66;;;-144.73;100.00
73551;BME280;61816;53.582;10.096;2023-04-24T00:34:56;54387.19;;;-144.73;100.00
73551;BME280;61816;53.582;10.096;2023-04-24T00:37:22;54374.84;;;-144.73;100.00
73551;BME280;61816;53.582;10.096;2023-04-24T00:39:47;54364.59;;;-144.73;100.00
73551;BME280;61816;53.582;10.096;2023-04-24T00:42:12;54378.97;;;-144.73;100.00
73551;BME280;61816;53.582;10.096;2023-04-24T00:44:38;54366.66;;;-144.73;100.00
73551;BME280;61816;53.582;10.096;2023-04-24T00:47:03;54354.34;;;-144.73;100.00
73551;BME280;61816;53.582;10.096;2023-04-24T00:49:29;54374.84;;;-144.73;100.00
73551;BME280;61816;53.582;10.096;2023-04-24T00:51:55;54358.44;;;-144.73;100.00
73551;BME280;61816;53.582;10.096;2023-04-24T00:54:21;54339.97;;;-144.73;100.00
73551;BME280;61816;53.582;10.096;2023-04-24T00:56:47;54387.19;;;-144.73;100.00
73551;BME280;61816;53.582;10.096;2023-04-24T00:59:16;54346.13;;;-144.73;100.00
73551;BME280;61816;53.582;10.096;2023-04-24T01:01:42;54381.00;;;-144.73;100.00
73551;BME280;61816;53.582;10.096;2023-04-24T01:04:09;54366.66;;;-144.73;100.00
73551;BME280;61816;53.582;10.096;2023-04-24T01:06:38;54407.69;;;-144.73;100.00
73551;BME280;61816;53.582;10.096;2023-04-24T01:09:04;54374.84;;;-144.73;100.00
73551;BME280;61816;53.582;10.096;2023-04-24T01:11:30;54364.59;;;-144.73;100.00
73551;BME280;61816;53.582;10.096;2023-04-24T01:13:56;54395.38;;;-144.73;100.00
73551;BME280;61816;53.582;10.096;2023-04-24T01:16:22;54370.75;;;-144.73;100.00
73551;BME280;61816;53.582;10.096;2023-04-24T01:18:47;54366.66;;;-144.73;100.00
73551;BME280;61816;53.582;10.096;2023-04-24T01:21:14;54333.81;;;-144.73;100.00
73551;BME280;61816;53.582;10.096;2023-04-24T01:23:43;54362.53;;;-144.73;100.00
73551;BME280;61816;53.582;10.096;2023-04-24T01:26:08;54383.06;;;-144.73;100.00
73551;BME280;61816;53.582;10.096;2023-04-24T01:28:34;54428.22;;;-144.73;100.00
73551;BME280;61816;53.582;10.096;2023-04-24T01:30:59;54346.13;;;-144.73;100.00
73551;BME280;61816;53.582;10.096;2023-04-24T01:33:25;54350.22;;;-144.73;100.00
73551;BME280;61816;53.582;10.096;2023-04-24T01:35:51;54383.06;;;-144.73;100.00
73551;BME280;61816;53.582;10.096;2023-04-24T01:38:16;54346.13;;;-144.73;100.00
73551;BME280;61816;53.582;10.096;2023-04-24T01:40:41;54346.13;;;-144.73;100.00
73551;BME280;61816;53.582;10.096;2023-04-24T01:43:07;54391.28;;;-144.73;100.00
73551;BME280;61816;53.582;10.096;2023-04-24T01:45:32;54360.50;;;-144.73;100.00
73551;BME280;61816;53.582;10.096;2023-04-24T01:47:58;54370.75;;;-144.73;100.00
73551;BME280;61816;53.582;10.096;2023-04-24T01:50:23;54374.84;;;-144.73;100.00
73551;BME280;61816;53.582;10.096;2023-04-24T01:52:49;54368.69;;;-144.73;100.00
73551;BME280;61816;53.582;10.096;2023-04-24T01:55:15;54346.13;;;-144.73;100.00
73551;BME280;61816;53.582;10.096;2023-04-24T01:57:40;54387.19;;;-144.73;100.00
73551;BME280;61816;53.582;10.096;2023-04-24T02:00:06;54321.50;;;-144.73;100.00
73551;BME280;61816;53.582;10.096;2023-04-24T02:02:32;54337.91;;;-144.73;100.00
73551;BME280;61816;53.582;10.096;2023-04-24T02:04:58;54370.75;;;-144.73;100.00
73551;BME280;61816;53.582;10.096;2023-04-24T02:07:24;54407.69;;;-144.73;100.00
73551;BME280;61816;53.582;10.096;2023-04-24T02:09:49;54389.22;;;-144.73;100.00
73551;BME280;61816;53.582;10.096;2023-04-24T02:12:15;54374.84;;;-144.73;100.00
73551;BME280;61816;53.582;10.096;2023-04-24T02:14:40;54385.13;;;-144.73;100.00
73551;BME280;61816;53.582;10.096;2023-04-24T02:17:07;54395.38;;;-144.73;100.00
73551;BME280;61816;53.582;10.096;2023-04-24T02:19:33;54378.97;;;-144.73;100.00
73551;BME280;61816;53.582;10.096;2023-04-24T02:21:58;54337.91;;;-144.73;100.00
73551;BME280;61816;53.582;10.096;2023-04-24T02:24:23;54387.19;;;-144.73;100.00
73551;BME280;61816;53.582;10.096;2023-04-24T02:26:49;54383.06;;;-144.73;100.00
73551;BME280;61816;53.582;10.096;2023-04-24T02:29:14;54374.84;;;-144.73;100.00
73551;BME280;61816;53.582;10.096;2023-04-24T02:31:40;54391.28;;;-144.73;100.00
73551;BME280;61816;53.582;10.096;2023-04-24T02:34:05;54362.53;;;-144.73;100.00
73551;BME280;61816;53.582;10.096;2023-04-24T02:36:31;54378.97;;;-144.73;100.00
73551;BME280;61816;53.582;10.096;2023-04-24T02:38:56;54383.06;;;-144.73;100.00
73551;BME280;61816;53.582;10.096;2023-04-24T02:41:22;54348.19;;;-144.73;100.00
73551;BME280;61816;53.582;10.096;2023-04-24T02:43:47;54342.03;;;-144.73;100.00
73551;BME280;61816;53.582;10.096;2023-04-24T02:46:12;54389.22;;;-144.73;100.00
73551;BME280;61816;53.582;10.096;2023-04-24T02:48:38;54395.38;;;-144.73;100.00
73551;BME280;61816;53.582;10.096;2023-04-24T02:51:03;54374.84;;;-144.73;100.00
73551;BME280;61816;53.582;10.096;2023-04-24T02:53:29;54436.44;;;-144.73;100.00
73551;BME280;61816;53.582;10.096;2023-04-24T02:55:55;54383.06;;;-144.73;100.00
73551;BME280;61816;53.582;10.096;2023-04-24T02:58:21;54370.75;;;-144.73;100.00
73551;BME280;61816;53.582;10.096;2023-04-24T03:00:46;54415.91;;;-144.73;100.00
73551;BME280;61816;53.582;10.096;2023-04-24T03:03:12;54415.91;;;-144.73;100.00
73551;BME280;61816;53.582;10.096;2023-04-24T03:05:38;54395.38;;;-144.73;100.00
73551;BME280;61816;53.582;10.096;2023-04-24T03:08:03;54378.97;;;-144.73;100.00
73551;BME280;61816;53.582;10.096;2023-04-24T03:10:29;54370.75;;;-144.73;100.00
73551;BME280;61816;53.582;10.096;2023-04-24T03:12:54;54350.22;;;-144.73;100.00
73551;BME280;61816;53.582;10.096;2023-04-24T03:15:20;54381.00;;;-144.73;100.00
73551;BME280;61816;53.582;10.096;2023-04-24T03:17:45;54370.75;;;-144.73;100.00
73551;BME280;61816;53.582;10.096;2023-04-24T03:20:10;54335.88;;;-144.73;100.00
73551;BME280;61816;53.582;10.096;2023-04-24T03:22:36;54366.66;;;-144.73;100.00
73551;BME280;61816;53.582;10.096;2023-04-24T03:25:01;54387.19;;;-144.73;100.00
73551;BME280;61816;53.582;10.096;2023-04-24T03:27:27;54391.28;;;-144.73;100.00
73551;BME280;61816;53.582;10.096;2023-04-24T03:29:52;54366.66;;;-144.73;100.00
73551;BME280;61816;53.582;10.096;2023-04-24T03:32:21;54387.19;;;-144.73;100.00
73551;BME280;61816;53.582;10.096;2023-04-24T03:34:47;54370.75;;;-144.73;100.00
73551;BME280;61816;53.582;10.096;2023-04-24T03:37:13;54354.34;;;-144.73;100.00
73551;BME280;61816;53.582;10.096;2023-04-24T03:39:38;54420.00;;;-144.73;100.00
73551;BME280;61816;53.582;10.096;2023-04-24T03:42:03;54333.81;;;-144.73;100.00
73551;BME280;61816;53.582;10.096;2023-04-24T03:44:29;54432.31;;;-144.73;100.00
73551;BME280;61816;53.582;10.096;2023-04-24T03:46:54;54360.50;;;-144.73;100.00
73551;BME280;61816;53.582;10.096;2023-04-24T03:49:20;54370.75;;;-144.73;100.00
73551;BME280;61816;53.582;10.096;2023-04-24T03:51:45;54378.97;;;-144.73;100.00
73551;BME280;61816;53.582;10.096;2023-04-24T03:54:11;54407.69;;;-144.73;100.00
73551;BME280;61816;53.582;10.096;2023-04-24T03:56:36;54391.28;;;-144.73;100.00
73551;BME280;61816;53.582;10.096;2023-04-24T03:59:02;54387.19;;;-144.73;100.00
73551;BME280;61816;53.582;10.096;2023-04-24T04:01:27;54366.66;;;-144.73;100.00
73551;BME280;61816;53.582;10.096;2023-04-24T04:03:53;54391.28;;;-144.73;100.00
73551;BME280;61816;53.582;10.096;2023-04-24T04:06:18;54397.44;;;-144.73;100.00
73551;BME280;61816;53.582;10.096;2023-04-24T04:08:44;54385.13;;;-144.73;100.00
73551;BME280;61816;53.582;10.096;2023-04-24T04:11:10;54387.19;;;-144.73;100.00
73551;BME280;61816;53.582;10.096;2023-04-24T04:13:35;54395.38;;;-144.73;100.00
73551;BME280;61816;53.582;10.096;2023-04-24T04:16:01;54374.84;;;-144.73;100.00
73551;BME280;61816;53.582;10.096;2023-04-24T04:18:26;54399.50;;;-144.73;100.00
73551;BME280;61816;53.582;10.096;2023-04-24T04:20:52;54337.91;;;-144.73;100.00
73551;BME280;61816;53.582;10.096;2023-04-24T04:23:17;54350.22;;;-144.73;100.00
73551;BME280;61816;53.582;10.096;2023-04-24T04:25:42;54391.28;;;-144.73;100.00
73551;BME280;61816;53.582;10.096;2023-04-24T04:28:08;54366.66;;;-144.73;100.00
73551;BME280;61816;53.582;10.096;2023-04-24T04:30:33;54356.38;;;-144.73;100.00
73551;BME280;61816;53.582;10.096;2023-04-24T04:32:59;54360.50;;;-144.73;100.00
73551;BME280;61816;53.582;10.096;2023-04-24T04:35:24;54387.19;;;-144.73;100.00
73551;BME280;61816;53.582;10.096;2023-04-24T04:37:50;54317.38;;;-144.73;100.00
73551;BME280;61816;53.582;10.096;2023-04-24T04:40:16;54342.03;;;-144.73;100.00
73551;BME280;61816;53.582;10.096;2023-04-24T04:42:42;54368.69;;;-144.73;100.00
73551;BME280;61816;53.582;10.096;2023-04-24T04:45:11;54407.69;;;-144.73;100.00
73551;BME280;61816;53.582;10.096;2023-04-24T04:47:37;54360.50;;;-144.73;100.00
73551;BME280;61816;53.582;10.096;2023-04-24T04:50:03;54383.06;;;-144.73;100.00
73551;BME280;61816;53.582;10.096;2023-04-24T04:52:29;54362.53;;;-144.73;100.00
73551;BME280;61816;53.582;10.096;2023-04-24T04:54:55;54358.44;;;-144.73;100.00
73551;BME280;61816;53.582;10.096;2023-04-24T04:57:20;54354.34;;;-144.73;100.00
73551;BME280;61816;53.582;10.096;2023-04-24T04:59:46;54391.28;;;-144.73;100.00
73551;BME280;61816;53.582;10.096;2023-04-24T05:02:12;54346.13;;;-144.73;100.00
73551;BME280;61816;53.582;10.096;2023-04-24T05:04:37;54407.69;;;-144.73;100.00
73551;BME280;61816;53.582;10.096;2023-04-24T05:07:03;54344.06;;;-144.73;100.00
73551;BME280;61816;53.582;10.096;2023-04-24T05:09:28;54372.81;;;-144.73;100.00
73551;BME280;61816;53.582;10.096;2023-04-24T05:11:55;54370.75;;;-144.73;100.00
73551;BME280;61816;53.582;10.096;2023-04-24T05:14:21;54362.53;;;-144.73;100.00
73551;BME280;61816;53.582;10.096;2023-04-24T05:16:47;54378.97;;;-144.73;100.00
73551;BME280;61816;53.582;10.096;2023-04-24T05:19:12;54362.53;;;-144.73;100.00
73551;BME280;61816;53.582;10.096;2023-04-24T05:21:39;54407.69;;;-144.73;100.00
73551;BME280;61816;53.582;10.096;2023-04-24T05:24:05;54387.19;;;-144.73;100.00
73551;BME280;61816;53.582;10.096;2023-04-24T05:26:31;54383.06;;;-144.73;100.00
73551;BME280;61816;53.582;10.096;2023-04-24T05:28:56;54407.69;;;-144.73;100.00
73551;BME280;61816;53.582;10.096;2023-04-24T05:31:21;54372.81;;;-144.73;100.00
73551;BME280;61816;53.582;10.096;2023-04-24T05:33:47;54376.91;;;-144.73;100.00
73551;BME280;61816;53.582;10.096;2023-04-24T05:36:12;54391.28;;;-144.73;100.00
73551;BME280;61816;53.582;10.096;2023-04-24T05:38:38;54346.13;;;-144.73;100.00
73551;BME280;61816;53.582;10.096;2023-04-24T05:41:03;54378.97;;;-144.73;100.00
73551;BME280;61816;53.582;10.096;2023-04-24T05:43:29;54407.69;;;-144.73;100.00
73551;BME280;61816;53.582;10.096;2023-04-24T05:45:54;54385.13;;;-144.73;100.00
73551;BME280;61816;53.582;10.096;2023-04-24T05:48:20;54407.69;;;-144.73;100.00
73551;BME280;61816;53.582;10.096;2023-04-24T05:50:47;54372.81;;;-144.73;100.00
73551;BME280;61816;53.582;10.096;2023-04-24T05:53:13;54333.81;;;-144.73;100.00
73551;BME280;61816;53.582;10.096;2023-04-24T05:55:38;54366.66;;;-144.73;100.00
73551;BME280;61816;53.582;10.096;2023-04-24T05:58:04;54378.97;;;-144.73;100.00
73551;BME280;61816;53.582;10.096;2023-04-24T06:00:30;54370.75;;;-144.73;100.00
73551;BME280;61816;53.582;10.096;2023-04-24T06:02:55;54395.38;;;-144.73;100.00
73551;BME280;61816;53.582;10.096;2023-04-24T06:05:21;54350.22;;;-144.73;100.00
73551;BME280;61816;53.582;10.096;2023-04-24T06:07:46;54391.28;;;-144.73;100.00
73551;BME280;61816;53.582;10.096;2023-04-24T06:10:12;54346.13;;;-144.73;100.00
73551;BME280;61816;53.582;10.096;2023-04-24T06:12:37;54378.97;;;-144.73;100.00
73551;BME280;61816;53.582;10.096;2023-04-24T06:15:03;54411.81;;;-144.73;100.00
73551;BME280;61816;53.582;10.096;2023-04-24T06:17:29;54374.84;;;-144.73;100.00
73551;BME280;61816;53.582;10.096;2023-04-24T06:19:54;54432.31;;;-144.73;100.00
73551;BME280;61816;53.582;10.096;2023-04-24T06:22:19;54395.38;;;-144.73;100.00
73551;BME280;61816;53.582;10.096;2023-04-24T06:24:45;54358.44;;;-144.73;100.00
73551;BME280;61816;53.582;10.096;2023-04-24T06:27:10;54383.06;;;-144.73;99.20
73551;BME280;61816;53.582;10.096;2023-04-24T06:29:36;54383.06;;;-144.73;100.00
73551;BME280;61816;53.582;10.096;2023-04-24T06:32:01;54407.69;;;-144.73;99.55
73551;BME280;61816;53.582;10.096;2023-04-24T06:34:26;54383.06;;;-144.73;100.00
73551;BME280;61816;53.582;10.096;2023-04-24T06:36:52;54354.34;;;-144.73;98.85
73551;BME280;61816;53.582;10.096;2023-04-24T06:39:17;54391.28;;;-144.73;98.20
73551;BME280;61816;53.582;10.096;2023-04-24T06:41:42;54358.44;;;-144.73;96.64
73551;BME280;61816;53.582;10.096;2023-04-24T06:44:08;54374.84;;;-144.73;96.23
73551;BME280;61816;53.582;10.096;2023-04-24T06:46:33;54411.81;;;-144.73;96.43
73551;BME280;61816;53.582;10.096;2023-04-24T06:49:00;54424.13;;;-144.73;95.44
73551;BME280;61816;53.582;10.096;2023-04-24T06:51:26;54378.97;;;-144.73;95.14
73551;BME280;61816;53.582;10.096;2023-04-24T06:53:53;54407.69;;;-144.73;94.30
73551;BME280;61816;53.582;10.096;2023-04-24T06:56:19;54370.75;;;-144.73;94.96
73551;BME280;61816;53.582;10.096;2023-04-24T06:58:45;54370.75;;;-144.73;94.03
73551;BME280;61816;53.582;10.096;2023-04-24T07:01:11;54374.84;;;-144.73;94.33
73551;BME280;61816;53.582;10.096;2023-04-24T07:03:36;54381.00;;;-144.73;94.08
73551;BME280;61816;53.582;10.096;2023-04-24T07:06:02;54366.66;;;-144.73;93.52
73551;BME280;61816;53.582;10.096;2023-04-24T07:08:28;54360.50;;;-144.73;92.98
73551;BME280;61816;53.582;10.096;2023-04-24T07:10:56;54323.53;;;-144.73;92.08
73551;BME280;61816;53.582;10.096;2023-04-24T07:13:22;54325.59;;;-144.73;90.70
73551;BME280;61816;53.582;10.096;2023-04-24T07:15:48;54378.97;;;-144.73;90.55
73551;BME280;61816;53.582;10.096;2023-04-24T07:18:16;54366.66;;;-144.73;92.23
73551;BME280;61816;53.582;10.096;2023-04-24T07:20:41;54370.75;;;-144.73;92.00
73551;BME280;61816;53.582;10.096;2023-04-24T07:23:07;54372.81;;;-144.73;92.26
73551;BME280;61816;53.582;10.096;2023-04-24T07:25:32;54333.81;;;-144.73;91.76
73551;BME280;61816;53.582;10.096;2023-04-24T07:27:58;54385.13;;;-144.73;89.98
73551;BME280;61816;53.582;10.096;2023-04-24T07:30:23;54342.03;;;-144.73;90.12
73551;BME280;61816;53.582;10.096;2023-04-24T07:32:49;54358.44;;;-144.73;90.21
73551;BME280;61816;53.582;10.096;2023-04-24T07:35:14;54378.97;;;-144.73;88.74
73551;BME280;61816;53.582;10.096;2023-04-24T07:37:39;54358.44;;;-144.73;88.92
73551;BME280;61816;53.582;10.096;2023-04-24T07:40:06;54325.59;;;-144.73;90.44
73551;BME280;61816;53.582;10.096;2023-04-24T07:42:31;54362.53;;;-144.73;89.91
73551;BME280;61816;53.582;10.096;2023-04-24T07:44:59;54342.03;;;-144.73;88.38
73551;BME280;61816;53.582;10.096;2023-04-24T07:47:25;54378.97;;;-144.73;87.23
73551;BME280;61816;53.582;10.096;2023-04-24T07:49:50;54337.91;;;-144.73;88.44
73551;BME280;61816;53.582;10.096;2023-04-24T07:52:16;54374.84;;;-144.73;88.38
73551;BME280;61816;53.582;10.096;2023-04-24T07:54:41;54337.91;;;-144.73;87.45
73551;BME280;61816;53.582;10.096;2023-04-24T07:57:08;54368.69;;;-144.73;85.68
73551;BME280;61816;53.582;10.096;2023-04-24T07:59:33;54317.38;;;-144.73;88.53
73551;BME280;61816;53.582;10.096;2023-04-24T08:02:00;54395.38;;;-144.73;88.97
73551;BME280;61816;53.582;10.096;2023-04-24T08:04:26;54352.28;;;-144.73;86.63
73551;BME280;61816;53.582;10.096;2023-04-24T08:06:52;54383.06;;;-144.73;85.96
73551;BME280;61816;53.582;10.096;2023-04-24T08:09:17;54342.03;;;-144.73;84.43
73551;BME280;61816;53.582;10.096;2023-04-24T08:11:43;54333.81;;;-144.73;86.22
73551;BME280;61816;53.582;10.096;2023-04-24T08:14:08;54389.22;;;-144.73;87.16
73551;BME280;61816;53.582;10.096;2023-04-24T08:16:34;54319.44;;;-144.73;86.14
73551;BME280;61816;53.582;10.096;2023-04-24T08:18:59;54342.03;;;-144.73;86.40
73551;BME280;61816;53.582;10.096;2023-04-24T08:21:25;54348.19;;;-144.73;88.28
73551;BME280;61816;53.582;10.096;2023-04-24T08:23:52;54411.81;;;-144.73;89.17
73551;BME280;61816;53.582;10.096;2023-04-24T08:26:17;54346.13;;;-144.73;89.50
73551;BME280;61816;53.582;10.096;2023-04-24T08:28:43;54325.59;;;-144.73;90.44
73551;BME280;61816;53.582;10.096;2023-04-24T08:31:08;54362.53;;;-144.73;89.39
73551;BME280;61816;53.582;10.096;2023-04-24T08:33:34;54370.75;;;-144.73;89.17
73551;BME280;61816;53.582;10.096;2023-04-24T08:36:03;54374.84;;;-144.73;89.94
73551;BME280;61816;53.582;10.096;2023-04-24T08:38:29;54385.13;;;-144.73;87.60
73551;BME280;61816;53.582;10.096;2023-04-24T08:40:58;54383.06;;;-144.73;88.68
73551;BME280;61816;53.582;10.096;2023-04-24T08:43:23;54387.19;;;-144.73;88.43
73551;BME280;61816;53.582;10.096;2023-04-24T08:45:50;54354.34;;;-144.73;88.59
73551;BME280;61816;53.582;10.096;2023-04-24T08:48:16;54346.13;;;-144.73;89.10
73551;BME280;61816;53.582;10.096;2023-04-24T08:50:42;54391.28;;;-144.73;87.82
73551;BME280;61816;53.582;10.096;2023-04-24T08:53:08;54383.06;;;-144.73;88.23
73551;BME280;61816;53.582;10.096;2023-04-24T08:55:34;54333.81;;;-144.73;86.06
73551;BME280;61816;53.582;10.096;2023-04-24T08:58:00;54329.72;;;-144.73;86.03
73551;BME280;61816;53.582;10.096;2023-04-24T09:00:27;54362.53;;;-144.73;85.38
73551;BME280;61816;53.582;10.096;2023-04-24T09:02:53;54366.66;;;-144.73;85.08
73551;BME280;61816;53.582;10.096;2023-04-24T09:05:21;54350.22;;;-144.73;85.24
73551;BME280;61816;53.582;10.096;2023-04-24T09:07:50;54354.34;;;-144.73;85.32
73551;BME280;61816;53.582;10.096;2023-04-24T09:10:17;54370.75;;;-144.73;85.30
73551;BME280;61816;53.582;10.096;2023-04-24T09:12:43;54350.22;;;-144.73;85.87
73551;BME280;61816;53.582;10.096;2023-04-24T09:15:09;54358.44;;;-144.73;86.23
73551;BME280;61816;53.582;10.096;2023-04-24T09:17:36;54366.66;;;-144.73;86.51
73551;BME280;61816;53.582;10.096;2023-04-24T09:20:01;54358.44;;;-144.73;86.08
73551;BME280;61816;53.582;10.096;2023-04-24T09:22:30;54370.75;;;-144.73;85.70
73551;BME280;61816;53.582;10.096;2023-04-24T09:25:06;54378.97;;;-144.73;86.14
73551;BME280;61816;53.582;10.096;2023-04-24T09:27:35;54378.97;;;-144.73;87.07
73551;BME280;61816;53.582;10.096;2023-04-24T09:30:01;54352.28;;;-144.73;86.86
73551;BME280;61816;53.582;10.096;2023-04-24T09:32:27;54391.28;;;-144.73;87.32
73551;BME280;61816;53.582;10.096;2023-04-24T09:35:14;54350.22;;;-144.73;87.64
73551;BME280;61816;53.582;10.096;2023-04-24T09:37:47;54362.53;;;-144.73;87.31
73551;BME280;61816;53.582;10.096;2023-04-24T09:40:18;54329.72;;;-144.73;88.31
73551;BME280;61816;53.582;10.096;2023-04-24T09:42:45;54362.53;;;-144.73;87.37
73551;BME280;61816;53.582;10.096;2023-04-24T09:45:11;54354.34;;;-144.73;85.73
73551;BME280;61816;53.582;10.096;2023-04-24T09:47:40;54364.59;;;-144.73;87.09
73551;BME280;61816;53.582;10.096;2023-04-24T09:50:13;54331.75;;;-144.73;86.93
73551;BME280;61816;53.582;10.096;2023-04-24T09:53:01;54420.00;;;-144.73;87.78
73551;BME280;61816;53.582;10.096;2023-04-24T09:55:26;54358.44;;;-144.73;86.96
73551;BME280;61816;53.582;10.096;2023-04-24T10:00:27;54383.06;;;-144.73;88.78
73551;BME280;61816;53.582;10.096;2023-04-24T10:03:00;54383.06;;;-144.73;88.96
73551;BME280;61816;53.582;10.096;2023-04-24T10:05:31;54370.75;;;-144.73;88.12
73551;BME280;61816;53.582;10.096;2023-04-24T10:08:11;54387.19;;;-144.73;88.52
73551;BME280;61816;53.582;10.096;2023-04-24T10:10:46;54383.06;;;-144.73;88.66
73551;BME280;61816;53.582;10.096;2023-04-24T10:13:13;54360.50;;;-144.73;87.25
73551;BME280;61816;53.582;10.096;2023-04-24T10:15:40;54387.19;;;-144.73;86.37
73551;BME280;61816;53.582;10.096;2023-04-24T10:18:08;54358.44;;;-144.73;86.76
73551;BME280;61816;53.582;10.096;2023-04-24T10:20:35;54362.53;;;-144.73;86.67
73551;BME280;61816;53.582;10.096;2023-04-24T10:23:01;54362.53;;;-144.73;86.98
73551;BME280;61816;53.582;10.096;2023-04-24T10:25:31;54381.00;;;-144.73;89.00
73551;BME280;61816;53.582;10.096;2023-04-24T10:27:58;54358.44;;;-144.73;88.96
73551;BME280;61816;53.582;10.096;2023-04-24T10:30:34;54381.00;;;-144.73;89.24
73551;BME280;61816;53.582;10.096;2023-04-24T10:33:07;54346.13;;;-144.73;87.98
73551;BME280;61816;53.582;10.096;2023-04-24T10:35:38;54358.44;;;-144.73;87.13
73551;BME280;61816;53.582;10.096;2023-04-24T10:38:15;54309.19;;;-144.73;87.74
73551;BME280;61816;53.582;10.096;2023-04-24T10:40:42;54383.06;;;-144.73;87.43
73551;BME280;61816;53.582;10.096;2023-04-24T10:43:08;54311.22;;;-144.73;87.75
73551;BME280;61816;53.582;10.096;2023-04-24T10:45:38;54364.59;;;-144.73;88.11
73551;BME280;61816;53.582;10.096;2023-04-24T10:48:05;54391.28;;;-144.73;89.06
73551;BME280;61816;53.582;10.096;2023-04-24T10:50:42;54374.84;;;-144.73;91.00
73551;BME280;61816;53.582;10.096;2023-04-24T10:53:14;54387.19;;;-144.73;92.52
73551;BME280;61816;53.582;10.096;2023-04-24T10:58:11;54350.22;;;-144.73;93.72
73551;BME280;61816;53.582;10.096;2023-04-24T11:00:39;54309.19;;;-144.73;92.44
73551;BME280;61816;53.582;10.096;2023-04-24T11:03:06;54411.81;;;-144.73;91.66
73551;BME280;61816;53.582;10.096;2023-04-24T11:05:49;54333.81;;;-144.73;89.59
73551;BME280;61816;53.582;10.096;2023-04-24T11:08:21;54374.84;;;-144.73;88.91
73551;BME280;61816;53.582;10.096;2023-04-24T11:10:58;54352.28;;;-144.73;85.68
73551;BME280;61816;53.582;10.096;2023-04-24T11:13:25;54329.72;;;-144.73;85.05
73551;BME280;61816;53.582;10.096;2023-04-24T11:16:13;54362.53;;;-144.73;83.62
73551;BME280;61816;53.582;10.096;2023-04-24T11:18:41;54350.22;;;-144.73;81.76
73551;BME280;61816;53.582;10.096;2023-04-24T11:21:17;54374.84;;;-144.73;82.06
73551;BME280;61816;53.582;10.096;2023-04-24T11:23:43;54325.59;;;-144.73;80.16
73551;BME280;61816;53.582;10.096;2023-04-24T11:26:21;54327.66;;;-144.73;80.64
73551;BME280;61816;53.582;10.096;2023-04-24T11:28:48;54366.66;;;-144.73;79.86
73551;BME280;61816;53.582;10.096;2023-04-24T11:31:40;54366.66;;;-144.73;79.85
73551;BME280;61816;53.582;10.096;2023-04-24T11:34:12;54376.91;;;-144.73;81.53
73551;BME280;61816;53.582;10.096;2023-04-24T11:36:39;54350.22;;;-144.73;81.10
73551;BME280;61816;53.582;10.096;2023-04-24T11:39:05;54407.69;;;-144.73;80.91
73551;BME280;61816;53.582;10.096;2023-04-24T11:41:31;54362.53;;;-144.73;80.76
73551;BME280;61816;53.582;10.096;2023-04-24T11:43:57;54337.91;;;-144.73;80.74
73551;BME280;61816;53.582;10.096;2023-04-24T11:46:26;54325.59;;;-144.73;79.63
73551;BME280;61816;53.582;10.096;2023-04-24T11:48:51;54383.06;;;-144.73;79.33
73551;BME280;61816;53.582;10.096;2023-04-24T11:51:16;54366.66;;;-144.73;75.90
73551;BME280;61816;53.582;10.096;2023-04-24T11:53:42;54366.66;;;-144.73;75.67
73551;BME280;61816;53.582;10.096;2023-04-24T11:56:08;54383.06;;;-144.73;76.06
73551;BME280;61816;53.582;10.096;2023-04-24T11:58:38;54317.38;;;-144.73;75.16
73551;BME280;61816;53.582;10.096;2023-04-24T12:01:04;54383.06;;;-144.73;74.58
73551;BME280;61816;53.582;10.096;2023-04-24T12:03:30;54374.84;;;-144.73;74.80
73551;BME280;61816;53.582;10.096;2023-04-24T12:06:25;54383.06;;;-144.73;73.85
73551;BME280;61816;53.582;10.096;2023-04-24T12:08:52;54415.91;;;-144.73;74.32
73551;BME280;61816;53.582;10.096;2023-04-24T12:11:17;54356.38;;;-144.73;75.03
73551;BME280;61816;53.582;10.096;2023-04-24T12:13:43;54346.13;;;-144.73;75.53
73551;BME280;61816;53.582;10.096;2023-04-24T12:16:10;54362.53;;;-144.73;72.64
73551;BME280;61816;53.582;10.096;2023-04-24T12:18:41;54362.53;;;-144.73;72.09
73551;BME280;61816;53.582;10.096;2023-04-24T12:21:23;54358.44;;;-144.73;73.07
73551;BME280;61816;53.582;10.096;2023-04-24T12:23:54;54366.66;;;-144.73;71.03
73551;BME280;61816;53.582;10.096;2023-04-24T12:26:20;54399.50;;;-144.73;71.72
73551;BME280;61816;53.582;10.096;2023-04-24T12:28:49;54344.06;;;-144.73;71.64